createdAt,value
2023-01-17T00:00:55.919Z,8.80
2023-01-17T00:03:24.509Z,8.80
2023-01-17T00:06:10.777Z,8.60
2023-01-17T00:08:57.156Z,8.80
2023-01-17T00:11:25.283Z,8.60
2023-01-17T00:13:53.500Z,8.80
2023-01-17T00:16:21.990Z,8.50
2023-01-17T00:19:09.959Z,8.60
2023-01-17T00:21:56.199Z,8.60
2023-01-17T00:24:42.281Z,8.30
2023-01-17T00:27:12.999Z,8.60
2023-01-17T00:29:43.739Z,8.80
2023-01-17T00:32:12.517Z,8.80
2023-01-17T00:34:40.915Z,8.60
2023-01-17T00:37:09.877Z,8.70
2023-01-17T00:39:39.987Z,8.70
2023-01-17T00:42:08.230Z,8.60
2023-01-17T00:44:55.408Z,8.90
2023-01-17T00:47:42.362Z,8.90
2023-01-17T00:50:29.209Z,8.90
2023-01-17T00:53:15.901Z,8.70
2023-01-17T00:56:02.065Z,8.70
2023-01-17T00:58:48.482Z,8.70
2023-01-17T01:01:34.677Z,8.70
2023-01-17T01:04:24.693Z,8.70
2023-01-17T01:07:14.260Z,8.80
2023-01-17T01:10:00.642Z,8.70
2023-01-17T01:12:46.636Z,8.60
2023-01-17T01:15:32.596Z,8.60
2023-01-17T01:18:26.461Z,8.60
2023-01-17T01:21:13.531Z,8.80
2023-01-17T01:23:59.709Z,8.80
2023-01-17T01:26:46.017Z,8.60
2023-01-17T01:29:32.160Z,8.50
2023-01-17T01:32:18.255Z,8.60
2023-01-17T01:34:45.965Z,8.70
2023-01-17T01:37:15.652Z,8.50
2023-01-17T01:39:43.280Z,8.70
2023-01-17T01:42:15.759Z,8.50
2023-01-17T01:44:46.160Z,8.40
2023-01-17T01:47:30.873Z,8.40
2023-01-17T01:50:01.574Z,8.60
2023-01-17T01:52:34.860Z,8.40
2023-01-17T01:55:32.935Z,8.40
2023-01-17T01:58:04.382Z,8.30
2023-01-17T02:00:36.529Z,8.30
2023-01-17T02:03:09.942Z,8.50
2023-01-17T02:05:37.874Z,8.20
2023-01-17T02:08:17.168Z,8.10
2023-01-17T02:10:45.322Z,8.10
2023-01-17T02:13:15.665Z,8.10
2023-01-17T02:16:23.931Z,8.30
2023-01-17T02:18:58.895Z,8.10
2023-01-17T02:21:35.876Z,8.00
2023-01-17T02:24:15.627Z,8.00
2023-01-17T02:26:50.630Z,7.90
2023-01-17T02:29:56.792Z,7.90
2023-01-17T02:32:39.352Z,7.80
2023-01-17T02:35:13.830Z,7.90
2023-01-17T02:38:10.866Z,7.90
2023-01-17T02:40:55.790Z,7.80
2023-01-17T02:43:24.624Z,7.90
2023-01-17T02:45:53.028Z,7.90
2023-01-17T02:48:24.868Z,7.80
2023-01-17T02:51:30.125Z,7.90
2023-01-17T02:54:35.039Z,7.80
2023-01-17T02:57:21.914Z,7.50
2023-01-17T03:00:03.737Z,7.80
2023-01-17T03:02:43.221Z,7.50
2023-01-17T03:05:14.946Z,7.80
2023-01-17T03:07:44.271Z,7.80
2023-01-17T03:10:14.712Z,7.80
2023-01-17T03:12:43.080Z,7.80
2023-01-17T03:15:15.864Z,7.80
2023-01-17T03:17:49.280Z,7.80
2023-01-17T03:20:22.291Z,7.80
2023-01-17T03:22:50.081Z,7.90
2023-01-17T03:25:17.682Z,7.90
2023-01-17T03:27:46.230Z,7.90
2023-01-17T03:30:13.856Z,7.90
2023-01-17T03:32:41.341Z,7.90
2023-01-17T03:35:09.176Z,7.90
2023-01-17T03:37:36.614Z,7.90
2023-01-17T03:40:04.824Z,8.10
2023-01-17T03:42:32.231Z,7.90
2023-01-17T03:44:59.524Z,7.90
2023-01-17T03:47:26.810Z,7.90
2023-01-17T03:49:54.119Z,7.90
2023-01-17T03:52:21.751Z,7.90
2023-01-17T03:54:49.133Z,7.90
2023-01-17T03:57:16.646Z,7.80
2023-01-17T03:59:44.927Z,7.80
2023-01-17T04:02:12.824Z,7.80
2023-01-17T04:04:41.085Z,7.80
2023-01-17T04:07:09.018Z,7.80
2023-01-17T04:09:39.225Z,7.80
2023-01-17T04:12:09.584Z,7.90
2023-01-17T04:14:37.113Z,7.90
2023-01-17T04:17:04.513Z,7.90
2023-01-17T04:19:34.589Z,7.90
2023-01-17T04:22:02.113Z,7.90
2023-01-17T04:24:29.610Z,8.10
2023-01-17T04:26:57.214Z,7.90
2023-01-17T04:29:24.704Z,7.90
2023-01-17T04:31:52.099Z,7.90
2023-01-17T04:34:19.851Z,7.90
2023-01-17T04:36:47.324Z,7.80
2023-01-17T04:39:14.979Z,7.80
2023-01-17T04:41:43.763Z,7.70
2023-01-17T04:44:11.398Z,7.70
2023-01-17T04:46:39.254Z,8.00
2023-01-17T04:49:06.899Z,7.70
2023-01-17T04:51:34.235Z,7.60
2023-01-17T04:54:05.157Z,7.60
2023-01-17T04:56:32.621Z,7.60
2023-01-17T04:59:00.098Z,7.60
2023-01-17T05:01:28.003Z,7.60
2023-01-17T05:03:55.397Z,7.50
2023-01-17T05:06:23.064Z,7.60
2023-01-17T05:08:50.801Z,7.40
2023-01-17T05:11:18.678Z,7.30
2023-01-17T05:13:51.236Z,7.30
2023-01-17T05:16:19.461Z,7.30
2023-01-17T05:18:47.081Z,7.30
2023-01-17T05:21:15.346Z,7.20
2023-01-17T05:23:43.064Z,7.20
2023-01-17T05:26:10.421Z,7.10
2023-01-17T05:28:38.051Z,7.50
2023-01-17T05:31:05.795Z,7.20
2023-01-17T05:33:33.261Z,7.10
2023-01-17T05:36:00.777Z,7.10
2023-01-17T05:38:29.050Z,7.50
2023-01-17T05:41:02.549Z,7.20
2023-01-17T05:43:29.949Z,7.10
2023-01-17T05:45:57.473Z,7.00
2023-01-17T05:48:25.590Z,7.00
2023-01-17T05:50:52.926Z,7.00
2023-01-17T05:53:20.311Z,7.00
2023-01-17T05:55:48.139Z,7.00
2023-01-17T05:58:19.125Z,7.00
2023-01-17T06:00:47.622Z,7.00
2023-01-17T06:03:15.991Z,7.30
2023-01-17T06:05:44.777Z,7.00
2023-01-17T06:08:12.095Z,7.00
2023-01-17T06:10:39.818Z,7.00
2023-01-17T06:13:12.599Z,7.00
2023-01-17T06:15:40.907Z,7.00
2023-01-17T06:18:13.791Z,7.00
2023-01-17T06:20:41.673Z,7.00
2023-01-17T06:23:12.395Z,7.00
2023-01-17T06:25:45.343Z,7.00
2023-01-17T06:28:18.182Z,7.00
2023-01-17T06:30:46.190Z,7.00
2023-01-17T06:33:14.332Z,7.00
2023-01-17T06:35:52.730Z,7.00
2023-01-17T06:38:20.896Z,7.00
2023-01-17T06:40:48.819Z,7.00
2023-01-17T06:43:16.387Z,7.00
2023-01-17T06:45:43.710Z,7.00
2023-01-17T06:48:11.100Z,7.00
2023-01-17T06:50:38.703Z,7.00
2023-01-17T06:53:08.172Z,7.40
2023-01-17T06:55:39.523Z,7.00
2023-01-17T06:58:08.480Z,7.00
2023-01-17T07:00:37.600Z,7.00
2023-01-17T07:03:15.245Z,7.00
2023-01-17T07:05:42.941Z,7.00
2023-01-17T07:08:10.732Z,7.00
2023-01-17T07:10:38.175Z,7.00
2023-01-17T07:13:09.418Z,7.00
2023-01-17T07:15:36.871Z,7.00
2023-01-17T07:18:04.600Z,7.00
2023-01-17T07:20:33.075Z,7.00
2023-01-17T07:23:00.704Z,7.30
2023-01-17T07:25:28.694Z,7.00
2023-01-17T07:27:57.617Z,7.20
2023-01-17T07:30:25.392Z,7.00
2023-01-17T07:32:56.144Z,7.00
2023-01-17T07:35:26.576Z,7.00
2023-01-17T07:37:54.951Z,7.00
2023-01-17T07:40:24.621Z,7.00
2023-01-17T07:42:52.826Z,6.90
2023-01-17T07:45:21.823Z,7.20
2023-01-17T07:47:50.029Z,7.00
2023-01-17T07:50:17.694Z,6.90
2023-01-17T07:52:52.059Z,6.90
2023-01-17T07:55:22.036Z,6.90
2023-01-17T07:57:50.751Z,6.80
2023-01-17T08:00:18.619Z,6.80
2023-01-17T08:02:46.062Z,6.80
2023-01-17T08:05:13.502Z,6.80
2023-01-17T08:07:41.098Z,6.80
2023-01-17T08:10:13.074Z,6.80
2023-01-17T08:12:49.832Z,6.90
2023-01-17T08:15:18.265Z,6.80
2023-01-17T08:17:47.444Z,6.90
2023-01-17T08:20:16.063Z,6.90
2023-01-17T08:22:43.447Z,6.80
2023-01-17T08:25:12.246Z,6.80
2023-01-17T08:27:39.850Z,6.90
2023-01-17T08:30:08.441Z,6.80
2023-01-17T08:32:35.953Z,6.90
2023-01-17T08:35:03.521Z,6.80
2023-01-17T08:37:30.806Z,6.90
2023-01-17T08:39:58.038Z,6.90
2023-01-17T08:42:25.674Z,7.00
2023-01-17T08:44:53.179Z,7.10
2023-01-17T08:47:20.645Z,7.20
2023-01-17T08:49:48.177Z,7.30
2023-01-17T08:52:15.624Z,7.50
2023-01-17T08:54:43.835Z,7.60
2023-01-17T08:57:11.348Z,7.80
2023-01-17T08:59:38.738Z,8.00
2023-01-17T09:02:16.848Z,8.20
2023-01-17T09:04:50.338Z,8.50
2023-01-17T09:07:19.558Z,8.70
2023-01-17T09:09:52.999Z,8.90
2023-01-17T09:12:24.155Z,9.30
2023-01-17T09:14:52.480Z,9.40
2023-01-17T09:17:20.751Z,9.50
2023-01-17T09:19:49.041Z,9.70
2023-01-17T09:22:17.031Z,10.20
2023-01-17T09:24:45.829Z,10.20
2023-01-17T09:27:13.646Z,10.60
2023-01-17T09:29:41.033Z,10.90
2023-01-17T09:32:08.424Z,10.90
2023-01-17T09:34:38.314Z,11.10
2023-01-17T09:37:05.746Z,11.50
2023-01-17T09:39:33.420Z,11.50
2023-01-17T09:42:34.133Z,11.80
2023-01-17T09:45:02.396Z,11.90
2023-01-17T09:47:35.689Z,12.50
2023-01-17T09:50:27.599Z,12.40
2023-01-17T09:53:13.115Z,12.60
2023-01-17T09:55:48.757Z,12.70
2023-01-17T09:58:41.123Z,12.80
2023-01-17T10:01:39.716Z,12.80
2023-01-17T10:04:38.261Z,12.80
2023-01-17T10:07:24.309Z,12.80
2023-01-17T10:10:13.962Z,13.00
2023-01-17T10:12:57.534Z,13.00
2023-01-17T10:15:46.963Z,12.80
2023-01-17T10:18:39.311Z,12.80
2023-01-17T10:21:17.252Z,12.70
2023-01-17T10:24:18.888Z,12.80
2023-01-17T10:26:53.550Z,12.30
2023-01-17T10:29:22.823Z,12.30
2023-01-17T10:31:58.988Z,12.30
2023-01-17T10:34:39.626Z,12.00
2023-01-17T10:37:23.794Z,12.50
2023-01-17T10:39:55.959Z,12.20
2023-01-17T10:42:31.089Z,12.20
2023-01-17T10:45:07.362Z,12.30
2023-01-17T10:47:38.037Z,12.00
2023-01-17T10:50:05.955Z,11.90
2023-01-17T10:52:43.416Z,11.80
2023-01-17T10:55:53.332Z,11.60
2023-01-17T10:58:22.271Z,11.50
2023-01-17T11:01:20.476Z,11.30
2023-01-17T11:03:51.368Z,11.20
2023-01-17T11:06:34.834Z,11.40
2023-01-17T11:42:06.435Z,10.60
2023-01-17T11:44:56.332Z,10.50
2023-01-17T12:02:32.243Z,10.50
2023-01-17T12:05:38.168Z,10.60
2023-01-17T12:08:15.394Z,10.30
2023-01-17T12:10:49.211Z,10.80
2023-01-17T12:13:53.398Z,10.60
2023-01-17T12:16:59.258Z,10.60
2023-01-17T12:19:43.944Z,10.50
2023-01-17T12:22:35.690Z,10.50
2023-01-17T12:25:14.676Z,10.50
2023-01-17T12:28:40.761Z,10.50
2023-01-17T12:31:29.597Z,10.50
2023-01-17T12:34:24.342Z,10.40
2023-01-17T12:36:55.352Z,10.10
2023-01-17T12:39:27.944Z,10.40
2023-01-17T12:42:21.051Z,10.40
2023-01-17T12:45:32.669Z,10.40
2023-01-17T12:48:07.005Z,10.30
2023-01-17T12:50:42.054Z,10.40
2023-01-17T12:53:27.864Z,10.30
2023-01-17T12:56:13.196Z,10.30
2023-01-17T12:58:47.582Z,10.30
2023-01-17T13:01:30.098Z,10.30
2023-01-17T13:04:16.148Z,10.30
2023-01-17T13:07:00.710Z,10.20
2023-01-17T13:09:52.349Z,10.20
2023-01-17T13:12:22.884Z,10.40
2023-01-17T13:14:51.202Z,10.20
2023-01-17T13:17:51.343Z,10.20
2023-01-17T13:20:56.277Z,10.10
2023-01-17T13:23:40.792Z,10.10
2023-01-17T13:26:24.308Z,10.10
2023-01-17T13:29:21.996Z,10.10
2023-01-17T13:32:04.565Z,10.10
2023-01-17T13:34:41.431Z,10.10
2023-01-17T13:37:49.901Z,10.10
2023-01-17T13:40:37.062Z,10.10
2023-01-17T13:43:19.581Z,10.00
2023-01-17T13:45:56.434Z,9.70
2023-01-17T13:48:27.389Z,9.70
2023-01-17T13:50:57.470Z,10.00
2023-01-17T13:53:34.398Z,10.00
2023-01-17T13:56:06.239Z,9.90
2023-01-17T13:58:54.433Z,9.90
2023-01-17T14:01:24.931Z,9.90
2023-01-17T14:03:52.835Z,9.90
2023-01-17T14:06:41.439Z,9.90
2023-01-17T14:09:39.649Z,9.80
2023-01-17T14:12:26.606Z,9.90
2023-01-17T14:14:56.634Z,9.90
2023-01-17T14:17:25.639Z,9.90
2023-01-17T14:20:05.868Z,9.90
2023-01-17T14:22:38.408Z,9.90
2023-01-17T14:25:12.079Z,9.80
2023-01-17T14:28:20.438Z,9.80
2023-01-17T14:30:54.249Z,9.80
2023-01-17T14:33:36.232Z,9.80
2023-01-17T14:36:22.259Z,10.00
2023-01-17T14:38:49.865Z,9.70
2023-01-17T14:41:35.972Z,9.70
2023-01-17T14:44:05.039Z,9.40
2023-01-17T14:46:34.915Z,9.90
2023-01-17T14:49:15.623Z,9.70
2023-01-17T14:51:43.316Z,9.70
2023-01-17T14:54:21.185Z,9.60
2023-01-17T14:56:49.445Z,9.60
2023-01-17T14:59:21.944Z,9.80
2023-01-17T15:02:07.265Z,9.60
2023-01-17T15:04:39.663Z,9.60
2023-01-17T15:07:12.549Z,9.60
2023-01-17T15:09:43.733Z,9.50
2023-01-17T15:12:14.388Z,9.70
2023-01-17T15:14:45.787Z,9.50
2023-01-17T15:17:24.479Z,9.50
2023-01-17T15:20:06.431Z,9.40
2023-01-17T15:22:37.336Z,9.40
2023-01-17T15:25:05.664Z,9.40
2023-01-17T15:27:33.480Z,9.40
2023-01-17T15:30:03.846Z,9.40
2023-01-17T15:32:31.717Z,9.30
2023-01-17T15:35:02.688Z,9.30
2023-01-17T15:37:32.521Z,9.30
2023-01-17T15:40:07.569Z,9.30
2023-01-17T15:42:38.521Z,9.30
2023-01-17T15:45:11.952Z,9.20
2023-01-17T15:47:39.615Z,9.20
2023-01-17T15:50:24.089Z,9.20
2023-01-17T15:52:53.771Z,9.40
2023-01-17T15:55:32.291Z,9.10
2023-01-17T15:58:03.322Z,9.00
2023-01-17T16:00:37.720Z,9.00
2023-01-17T16:03:20.975Z,8.90
2023-01-17T16:05:49.116Z,8.90
2023-01-17T16:08:16.449Z,8.90
2023-01-17T16:10:44.238Z,8.80
2023-01-17T16:13:13.488Z,8.80
2023-01-17T16:15:41.311Z,8.80
2023-01-17T16:18:22.919Z,8.70
2023-01-17T16:20:56.523Z,8.70
2023-01-17T16:23:23.872Z,8.70
2023-01-17T16:25:51.341Z,8.70
2023-01-17T16:28:18.879Z,8.60
2023-01-17T16:30:48.760Z,8.60
2023-01-17T16:33:16.055Z,8.60
2023-01-17T16:35:43.474Z,8.50
2023-01-17T16:38:15.379Z,8.50
2023-01-17T16:40:45.329Z,8.50
2023-01-17T16:43:18.141Z,8.50
2023-01-17T16:45:54.384Z,8.40
2023-01-17T16:48:32.055Z,8.60
2023-01-17T16:51:31.285Z,8.00
2023-01-17T16:54:02.378Z,7.90
2023-01-17T16:56:34.305Z,8.20
2023-01-17T16:59:05.202Z,8.20
2023-01-17T17:01:36.444Z,7.80
2023-01-17T17:04:28.029Z,7.80
2023-01-17T17:06:55.994Z,8.00
2023-01-17T17:09:27.645Z,8.20
2023-01-17T17:11:59.401Z,7.90
2023-01-17T17:14:28.551Z,7.90
2023-01-17T17:16:57.143Z,7.90
2023-01-17T17:19:25.414Z,7.80
2023-01-17T17:21:53.532Z,8.00
2023-01-17T17:29:22.691Z,7.40
2023-01-17T17:31:53.285Z,7.60
2023-01-17T17:34:29.842Z,7.50
2023-01-17T17:37:04.904Z,7.60
2023-01-17T17:39:33.676Z,7.60
2023-01-17T17:42:06.095Z,7.50
2023-01-17T17:44:36.853Z,7.10
2023-01-17T17:47:13.614Z,7.40
2023-01-17T17:49:58.642Z,7.30
2023-01-17T17:52:32.699Z,7.30
2023-01-17T17:55:01.357Z,7.20
2023-01-17T17:57:35.090Z,7.20
2023-01-17T18:00:05.149Z,7.20
2023-01-17T18:02:34.154Z,7.10
2023-01-17T18:05:02.388Z,7.10
2023-01-17T18:07:33.028Z,7.10
2023-01-17T18:10:01.705Z,7.10
2023-01-17T18:12:33.759Z,7.40
2023-01-17T18:15:01.637Z,7.30
2023-01-17T18:17:29.035Z,7.10
2023-01-17T18:20:27.128Z,7.00
2023-01-17T18:26:53.441Z,6.90
2023-01-17T18:29:26.332Z,6.90
2023-01-17T18:31:58.357Z,6.90
2023-01-17T18:34:29.695Z,6.90
2023-01-17T18:36:57.730Z,6.80
2023-01-17T18:39:28.246Z,6.80
2023-01-17T18:41:56.760Z,6.80
2023-01-17T18:44:25.113Z,6.50
2023-01-17T18:47:05.967Z,7.00
2023-01-17T18:49:50.379Z,6.70
2023-01-17T18:52:59.381Z,6.50
2023-01-17T18:55:27.250Z,6.70
2023-01-17T18:57:55.089Z,7.00
2023-01-17T19:00:23.724Z,6.60
2023-01-17T19:02:56.021Z,6.70
2023-01-17T19:05:24.663Z,6.20
2023-01-17T19:08:51.607Z,7.00
2023-01-17T19:11:27.082Z,6.50
2023-01-17T19:13:58.298Z,6.50
2023-01-17T19:16:29.105Z,6.50
2023-01-17T19:19:30.090Z,6.50
2023-01-17T19:21:59.197Z,6.50
2023-01-17T19:24:26.923Z,6.80
2023-01-17T19:27:15.071Z,6.70
2023-01-17T19:30:34.655Z,6.30
2023-01-17T19:36:29.387Z,6.30
2023-01-17T19:39:06.200Z,6.30
2023-01-17T19:41:36.535Z,6.60
2023-01-17T19:44:25.374Z,6.70
2023-01-17T19:47:17.862Z,6.70
2023-01-17T19:49:45.809Z,6.70
2023-01-17T19:52:19.215Z,6.70
2023-01-17T19:54:47.287Z,6.60
2023-01-17T19:57:15.413Z,6.60
2023-01-17T19:59:43.290Z,6.30
2023-01-17T20:02:11.641Z,6.60
2023-01-17T20:04:40.069Z,6.30
2023-01-17T20:07:07.620Z,6.70
2023-01-17T20:09:37.775Z,6.20
2023-01-17T20:12:05.973Z,6.70
2023-01-17T20:14:35.107Z,6.30
2023-01-17T20:17:03.655Z,6.30
2023-01-17T20:19:34.991Z,6.70
2023-01-17T20:22:03.030Z,6.40
2023-01-17T20:24:31.192Z,6.40
2023-01-17T20:30:21.743Z,6.40
2023-01-17T20:32:51.538Z,6.40
2023-01-17T20:35:29.105Z,6.80
2023-01-17T20:38:18.131Z,6.30
2023-01-17T20:44:16.523Z,6.50
2023-01-17T20:46:46.401Z,6.50
2023-01-17T20:49:19.320Z,7.00
2023-01-17T20:59:23.326Z,6.40
2023-01-17T21:01:57.137Z,6.70
2023-01-17T21:04:26.183Z,6.30
2023-01-17T21:06:57.564Z,6.40
2023-01-17T21:09:25.952Z,6.30
2023-01-17T21:19:13.447Z,6.40
2023-01-17T21:21:49.872Z,6.80
2023-01-17T21:24:19.668Z,6.40
2023-01-17T21:26:47.342Z,6.50
2023-01-17T21:29:18.920Z,6.70
2023-01-17T21:31:47.363Z,6.50
2023-01-17T21:34:17.590Z,6.40
2023-01-17T21:37:39.047Z,6.50
2023-01-17T21:40:08.279Z,6.30
2023-01-17T21:42:45.073Z,6.50
2023-01-17T21:45:40.475Z,6.70
2023-01-17T21:48:19.492Z,6.40
2023-01-17T21:51:15.958Z,6.50
2023-01-17T21:53:52.015Z,6.70
2023-01-17T22:16:39.511Z,6.30
2023-01-17T22:19:12.465Z,6.20
2023-01-17T22:21:40.441Z,6.60
2023-01-17T22:24:09.523Z,6.10
2023-01-17T22:26:39.921Z,6.10
2023-01-17T22:35:47.395Z,6.20
2023-01-17T22:48:10.115Z,5.80
2023-01-17T22:50:38.461Z,6.30
2023-01-17T22:53:09.187Z,5.80
2023-01-17T22:55:37.146Z,6.40
2023-01-17T22:58:05.048Z,6.10
2023-01-17T23:00:32.969Z,6.10
2023-01-17T23:03:01.172Z,6.10
2023-01-17T23:05:29.814Z,5.90
2023-01-17T23:11:43.624Z,6.00
2023-01-17T23:14:24.543Z,6.10
2023-01-17T23:18:02.010Z,6.00
2023-01-17T23:20:29.939Z,5.60
2023-01-17T23:22:58.224Z,6.40
2023-01-17T23:25:26.530Z,6.30
2023-01-17T23:31:44.494Z,5.60
2023-01-17T23:34:12.770Z,5.90
2023-01-17T23:36:40.643Z,6.40
2023-01-17T23:42:36.627Z,6.00
2023-01-17T23:45:04.903Z,5.60
2023-01-17T23:47:32.841Z,5.60
2023-01-17T23:50:00.789Z,6.00
2023-01-17T23:52:28.699Z,6.00
2023-01-17T23:54:56.854Z,5.80
